Main page
METAR-TAF:

METAR-TAF

Airports :

Federico Fellini International Airport

Rimini, Italy

latitude: 44-02N, longitude: 012-37E, elevation: 12 m

Current weather observation

The report was made 32 minutes ago, at 06:50 UTC
Wind 3 kt from the South/Southeast
Temperature -1°C
Humidity 86%
Pressure 1019 hPa
Visibility: 8000 m

METAR: LIPR 160650Z 15003KT 8000 NSC M01/M03 Q1019

Time: 08:22 (07:22 UTC)

Forecast

The report was made 2 hours and 22 minutes ago, at 05:00 UTC
Forecast valid from 16 at 06 UTC to 16 at 15 UTC
Wind 7 kt from the West
Visibility 10 km or more
Scattered clouds at a height of 4000 ft

TAF: LIPR 160500Z 1606/1615 28007KT 9999 SCT040

Weather observations and forecasts of more than 4000 airports (METAR and TAF reports).

The available stations are represented by yellow and red dots on the map.

Hover mouse over dot to see the name of the station.

Then click to see weather observations and forecasts.

To change the map : click on the green buttons with a black cross to zoom in, on the green button with a dash to zoom out, or on the green arrows for adjacent maps.


METAR-TAF: